Terminal Aerodrome Forecast
Issued by NWS

Home | Current Version | Previous Version | Text Only | Print | Product List | Glossary On
Versions: 1 2 3 4 5 6 7 8 9 10 11 12 13 14 15 16 17 18 19 20 21 22 23 24
000
FTUS45 KLKN 031120
TAFWMC
TAF
KWMC 031120Z 0312/0412 32007KT P6SM BKN250
     FM032000 28009KT P6SM SCT100 BKN250
     FM040300 31007KT P6SM BKN120=

USA.gov is the U.S. government's official web portal to all federal, state and local government web resources and services.